Terminal Aerodrome Forecast
Issued by NWS

Home | Current Version | Previous Version | Text Only | Print | Product List | Glossary On
Versions: 1 2 3 4 5 6 7 8 9 10 11 12 13 14 15 16 17 18 19 20 21 22 23 24 25 26 27 28 29 30
000
FTUS45 KGGW 221900 AAA
TAFOLF
TAF AMD
KOLF 221920Z 2219/2318 31012KT 1SM -SN BKN016 OVC030
     FM222100 32013KT 4SM -SN OVC014
     FM230000 33013KT P6SM VCSH OVC020
     FM230600 30010KT P6SM BKN026=

USA.gov is the U.S. government's official web portal to all federal, state and local government web resources and services.